Pinegrove, Mississippi
Current Conditions -  °F | °C
As of 3:35 PM on Wednesday 26 Nov 2014 (Local Time) from KUOX Reporting Station
Broken Clouds Broken Clouds  
Wind Chill: 54°   Ceiling: 10000
Heat Index: 54°   Visibility: 10mi
Dew Point: 34°   Wind: 12mph
Humidity: 47%   Direction: 250°WSW
Pressure: 30.03"   Gusts: 24mph
Location:  34.6392°N, 89.1796°W
Report Text: KUOX 262135Z AUTO 25010G21KT 020V030 10SM BKN100 12/01 A3003 RMK AO2 PWINO PNO
Loading
Personal Weather Stations






























Interactive Weather Map New forecast layout! Learn more

10-Day Weather Forecast

Advertisements
Track Severe Weather on mobile